David Skriniar

Ojeador - Spartak Trnava
4 Jun 2028
Domingo
Continuar

Personalidad

Adaptabilidad (16) Ambición (12) Controversia (16) Lealtad (12) Presión (6) Profesionalismo (13) Deportividad (13) Temperamento (2)

Perfil

Estilo de dirección Democrático
Licencia Continental C
Determinación 6
Gestión de personas 12
Motivación 8
Disciplina 12
Satisfacción laboral
100%
Fatiga
0%
Cargo Ojeador
Salario 17.0K p/s
Contrato 14.03.2029

Rendimiento

Comportamiento Bueno
Efectividad del entrenamiento
43%
Desarrollo de jugadores
40%
Prevención de lesiones
50%
Implementación táctica
60%

Actualmente siguiendo

65
Jugador Club Estado Habilidad Confianza Observado Última observación Último voto
Nino Kukovec DAC Dunajska Streda Activo 112 / 108 62% 1 31.01.2028 Aprobar
Alfie May Huddersfield Town Activo 118 / 116 40% 3 31.07.2027 -
Stiven Shpendi Empoli Activo 132 / 117 40% 1 31.07.2027 -
Malik Mothersille Stockport County Activo 117 / 128 40% 1 31.07.2027 -
Jack Payne Newport County Activo 105 / 109 40% 1 30.07.2027 -
Iwan Morgan Grimsby Town Activo 112 / 126 40% 1 28.07.2027 -
Sam Nombe Milton Keynes Dons Activo 123 / 105 40% 1 27.07.2027 -
Tammer Kumar West Bromwich Albion Activo 122 / 123 40% 1 27.07.2027 -
Jordan Clark Luton Town Activo 112 / 126 40% 1 27.07.2027 -
Myles Peart-Harris Bristol Rovers Activo 131 / 121 40% 1 26.07.2027 -
Mark Sykes Millwall Activo 117 / 126 40% 1 26.07.2027 -
Ronan Hale Gillingham Activo 114 / 110 40% 1 23.07.2027 -
Kimarni Smith Barnet Activo 109 / 107 40% 1 22.07.2027 -
Sonny Carey Charlton Athletic Activo 130 / 129 40% 1 22.07.2027 -
Ilias Bronkhorst Huddersfield Town Activo 124 / 113 40% 1 22.07.2027 -
Pablo Viudez Shrewsbury Town Activo 106 / 99 40% 1 20.07.2027 -
Harry Leonard Peterborough United Activo 115 / 116 40% 1 19.07.2027 -
Marco Tumminello Benevento Activo 113 / 117 40% 1 18.07.2027 -
Christian Saydee Wigan Athletic Activo 118 / 112 40% 1 18.07.2027 -
Michele Emmausso Cosenza Activo 103 / 98 40% 2 17.07.2027 -
Guillaume Furrer Lecco Activo 115 / 109 40% 1 17.07.2027 -
Mohamed Mallahi Pro Vercelli Activo 109 / 109 40% 3 16.07.2027 -
Sheldon Dinesh Stockport County Activo 102 / 96 40% 1 16.07.2027 -
Harvey Saunders Tranmere Rovers Activo 84 / 82 40% 4 15.07.2027 -
Giacomo Sali AlbinoLeffe Activo 101 / 93 40% 1 15.07.2027 -
Sean Parker Lecco Activo 100 / 102 40% 1 14.07.2027 -
Pablo García Gijón Activo 119 / 106 40% 1 14.07.2027 -
Beryly Lubala Vicenza Activo 103 / 98 40% 2 11.07.2027 -
Nicola Dalmonte Trento Activo 107 / 100 40% 1 09.07.2027 -
Ismail Achik Salernitana Activo 99 / 110 40% 2 08.07.2027 -
Francesco Zampano Modena Activo 129 / 115 40% 1 07.07.2027 -
Leonardo Mancuso Mantova Activo 124 / 114 40% 1 04.07.2027 -
Kamran Aliev SKA Khabarovsk Activo 102 / 111 40% 1 04.07.2027 Más información
Shaq Forde Bristol Rovers Activo 105 / 94 40% 2 02.07.2027 -
Jonathan Cañete Portuguesa Activo 116 / 119 40% 1 02.07.2027 -
Alexandr Yushin Torpedo Moscow Activo 104 / 97 40% 1 02.07.2027 -
José Álvarez Arsenal Tula Activo 122 / 109 40% 3 30.06.2027 -
Kane Drummond Oldham Athletic Activo 104 / 90 40% 3 29.06.2027 -
Djibril Coulibaly Real Bamako Activo 90 / 103 40% 1 28.06.2027 -
Jake Hollman Walsall Activo 102 / 95 40% 1 28.06.2027 -
Francesco Petito Dolomiti Bellunesi Activo 102 / 106 40% 1 25.06.2027 -
Tommaso Biasci Avellino Activo 119 / 125 40% 1 25.06.2027 -
Jesús Hernández Estudiantes de Merida Activo 109 / 117 40% 1 24.06.2027 -
Junior Quitirna Wycombe Wanderers Activo 101 / 100 40% 1 24.06.2027 -
Giuseppe Sibilli Bari Activo 115 / 122 40% 2 23.06.2027 -
Javi García Casertana Activo 89 / 90 40% 1 23.06.2027 -
Mattia Finotto Carrarese Activo 123 / 109 40% 2 19.06.2027 -
Moussakoye Diallo Stade Malien Activo 109 / 106 40% 1 19.06.2027 -
Gianluca Contini Siracusa Activo 97 / 102 40% 2 17.06.2027 -
Davide Faraoni Pescara Activo 113 / 109 40% 1 17.06.2027 -
Filippo Bandinelli Spezia Activo 121 / 111 40% 1 17.06.2027 -
Stefano Moreo Pisa Activo 123 / 126 40% 1 15.06.2027 -
Michael Liguori Catania Activo 111 / 105 40% 1 15.06.2027 -
Maiko Candiano Siracusa Activo 103 / 106 40% 1 14.06.2027 -
Tony Springett Lecco Activo 111 / 103 40% 1 12.06.2027 -
Luca Fabrizi Pianese Activo 106 / 101 40% 1 11.06.2027 -
Dmitry Tsypchenko Torpedo Moscow Activo 102 / 102 40% 1 11.06.2027 -
Ethan Bristow Tranmere Rovers Activo 99 / 99 40% 1 09.06.2027 -
Manuel Fischnaller Ravenna Activo 104 / 106 40% 1 09.06.2027 -
Jack Vale Pro Vercelli Activo 92 / 95 40% 1 08.06.2027 -
Giuseppe Panico Foggia Activo 112 / 108 40% 1 06.06.2027 -
Adam Masina Pescara Activo 132 / 118 40% 1 06.06.2027 -
Davide Bariti Virtus Entella Activo 119 / 107 40% 1 06.06.2027 -
Keita Baldé Monza Activo 123 / 117 40% 1 04.06.2027 -
Samuel Štefánik Podbrezova Activo 100 / 103 55% 1 10.08.2026 -